LiveATC.Net - Listen to live air traffic control over the Internet! Contact LiveATC.net for advertising information


ICAO: KTTD  IATA: TTD   Airport: Portland-Troutdale Airport
City: Portland   State/Province: Oregon
Country: United States   Continent: North America
KTTD METAR Weather: KTTD 181753Z VRB03KT 10SM FEW027 11/03 A3015 RMK AO2 SLP210 T01110033 10117 20044 53003
KTTD Flight Activity (FlightAware)
KTTD Airport Info   (AirNav) (iFlightPlanner)
KTTD Ground/Tower
Feed Status: DOWN
Last heard on: 2014-01-24 16:22:04 (84 days 2 hours 9 minutes ago)
KTTD Ground/Tower Audio Archives
FacilityFrequency
Troutdale Ground121.800
Troutdale Tower120.900


NOTICE

Unauthorized use prohibited. See LiveATC.net Terms of Service


Find LiveATC Audio Streams


Airport/ARTCC Code

Frequency
(e.g., 124.400, 128.75)
Site-wide search

Browse LiveATC Feeds
LiveATC Coverage Map
Top 50 LiveATC Feeds
Bad Weather Areas

LiveATC FAQ
Offer a LiveATC Feed
Contact LiveATC.net
Press Inquiries

LiveATC on iPhone
LiveATC on Android

LiveATC Mobile
(Mobile browser)

ATC Audio Archives
Interesting Recordings

LiveATC Forums


Home Page
About LiveATC.net
Make a Donation
LiveATC Bookstore

Terms of Use
Privacy Policy

ATC/Radar Sites
U.S. ARTCC Freqs
Canadian Air Freqs

AIRMETs/SIGMETs

FAA Airport Status
Nat'l Airspace Status
Arrival Demand Charts


Server Software By:
Icecast.org
Liquidsoap

Please make a donation to help us keep growing!